PDT,Max TemperatureF,Mean TemperatureF,Min TemperatureF,Max Dew PointF,MeanDew PointF,Min DewpointF,Max Humidity, Mean Humidity, Min Humidity, Max Sea Level PressureIn, Mean Sea Level PressureIn, Min Sea Level PressureIn, Max VisibilityMiles, Mean VisibilityMiles, Min VisibilityMiles, Max Wind SpeedMPH, Mean Wind SpeedMPH, Max Gust SpeedMPH,PrecipitationIn, CloudCover, Events, WindDirDegrees
2011-10-1,61,58,55,55,52,48,93,79,64,29.96,29.93,29.86,10,7,1,10,3,14,0.27,8,Rain,174
2011-10-2,62,59,55,57,54,52,93,89,84,29.94,29.92,29.84,10,9,4,10,4,15,0.09,8,Rain,152
2011-10-3,65,60,54,54,52,48,93,68,42,29.96,29.85,29.83,20,10,7,15,8,20,0.21,7,Rain,166
2011-10-4,64,57,50,50,48,44,96,74,52,29.83,29.64,29.45,10,10,7,24,10,32,0.17,6,Rain,163
2011-10-5,59,54,49,47,46,45,93,75,57,29.79,29.61,29.48,10,10,10,17,10,25,0.01,6,Rain,170
2011-10-6,61,54,46,50,47,44,93,79,64,30.13,30.00,29.81,10,10,10,10,7,69,0.00,7,,165
2011-10-7,58,55,52,54,52,48,89,85,80,30.21,30.19,30.14,10,7,2,14,7,17,0.03,8,Rain,164
2011-10-8,69,61,52,54,51,47,93,71,48,30.22,30.17,30.11,10,10,2,12,3,20,0.00,5,,182
2011-10-9,61,57,52,55,53,50,96,87,78,30.11,29.98,29.82,10,6,1,8,1,15,0.05,7,Rain,120
2011-10-10,64,59,54,59,54,50,100,84,67,29.80,29.67,29.60,10,7,2,23,8,32,0.20,8,Rain,181
2011-10-11,68,62,55,54,52,47,93,71,48,30.17,29.92,29.72,10,9,2,20,12,26,0.33,7,Rain,193
2011-10-12,65,56,47,52,48,44,100,76,52,30.25,30.21,30.17,10,10,10,9,3,14,0.04,2,,21
2011-10-13,58,55,51,50,48,45,89,76,62,30.21,30.07,29.95,10,10,9,15,7,18,0.03,6,Rain,344
2011-10-14,60,51,41,53,48,41,100,88,75,29.98,29.96,29.93,10,8,0,9,2,,0.01,5,Fog-Rain,345
2011-10-15,59,55,51,53,51,50,100,88,75,30.03,29.99,29.95,10,8,6,12,7,18,0.00,7,,348
2011-10-16,62,55,48,52,49,44,100,82,64,30.29,30.12,29.99,10,4,0,8,1,66,0.00,6,Fog,28
2011-10-17,66,54,41,47,43,39,100,70,40,30.37,30.31,30.18,10,5,0,15,6,18,0.00,2,Fog,5
2011-10-18,75,58,41,50,45,40,96,66,35,30.17,30.04,29.92,10,10,10,10,3,20,0.00,0,,117
2011-10-19,62,55,47,53,50,45,93,83,72,30.12,30.06,29.92,10,10,6,16,7,20,0.00,6,,185
2011-10-20,63,56,49,51,49,46,93,77,60,30.12,30.09,30.05,10,10,10,9,4,13,T,4,,353
2011-10-21,66,60,54,53,51,47,93,77,60,30.29,30.23,30.13,10,10,10,20,9,24,0.00,8,,181
2011-10-22,68,61,54,55,53,51,93,78,63,30.30,30.26,30.22,10,10,10,16,8,20,0.00,6,,175
2011-10-23,67,61,54,55,52,46,100,82,63,30.22,30.16,30.09,10,10,10,12,4,14,0.00,7,Fog-Rain,347
2011-10-24,60,49,38,46,40,36,92,68,44,30.37,30.29,30.18,10,10,10,12,3,20,0.00,1,,358
2011-10-25,57,45,33,41,37,32,100,78,55,30.43,30.38,30.34,10,7,0,14,4,17,0.00,2,Fog,2
2011-10-26,54,42,30,41,36,30,92,71,50,30.37,30.31,30.26,10,10,8,10,2,28,T,4,Fog,157
2011-10-27,58,49,39,42,39,36,92,68,43,30.30,30.19,30.09,10,10,10,13,6,20,0.00,1,Fog,349
2011-10-28,60,49,38,54,47,37,93,75,57,30.15,30.09,30.05,10,8,3,18,7,39,0.01,5,Rain,175
2011-10-29,63,55,47,54,52,46,100,86,72,30.30,30.23,30.15,10,6,0,13,1,43,0.05,7,Fog-Rain,136
2011-10-30,64,60,55,59,54,46,100,90,80,30.25,30.16,30.12,10,8,2,15,6,22,0.12,8,Rain,186
2011-10-31,57,48,39,48,40,36,96,76,55,30.48,30.43,30.25,10,6,0,14,3,18,0.05,3,Fog-Rain,264